createdAt,value
2023-03-16T00:00:14.159Z,82.80
2023-03-16T00:03:03.656Z,82.66
2023-03-16T00:05:32.722Z,81.42
2023-03-16T00:08:01.397Z,81.92
2023-03-16T00:10:30.912Z,82.20
2023-03-16T00:12:59.433Z,81.30
2023-03-16T00:15:30.243Z,82.47
2023-03-16T00:17:59.229Z,81.40
2023-03-16T00:20:28.467Z,81.83
2023-03-16T00:22:57.634Z,80.73
2023-03-16T00:25:26.754Z,80.51
2023-03-16T00:27:55.551Z,81.27
2023-03-16T00:30:25.531Z,79.89
2023-03-16T00:32:55.807Z,80.63
2023-03-16T00:35:24.842Z,80.60
2023-03-16T00:37:57.408Z,80.67
2023-03-16T00:40:27.393Z,80.87
2023-03-16T00:42:56.268Z,81.21
2023-03-16T00:45:25.459Z,79.58
2023-03-16T00:47:55.452Z,80.36
2023-03-16T00:50:24.377Z,78.64
2023-03-16T00:52:53.833Z,78.49
2023-03-16T00:55:23.110Z,77.56
2023-03-16T00:57:51.760Z,78.73
2023-03-16T01:00:22.186Z,78.09
2023-03-16T01:02:51.091Z,79.49
2023-03-16T01:05:22.709Z,79.00
2023-03-16T01:07:53.948Z,79.32
2023-03-16T01:10:22.896Z,80.12
2023-03-16T01:12:56.199Z,80.28
2023-03-16T01:15:25.274Z,80.49
2023-03-16T01:17:54.479Z,79.86
2023-03-16T01:20:26.590Z,80.00
2023-03-16T01:22:55.392Z,79.74
2023-03-16T01:25:25.785Z,79.67
2023-03-16T01:27:54.760Z,79.18
2023-03-16T01:30:23.697Z,79.35
2023-03-16T01:32:52.508Z,78.66
2023-03-16T01:35:22.679Z,79.23
2023-03-16T01:37:53.212Z,79.39
2023-03-16T01:40:26.784Z,78.94
2023-03-16T01:43:02.935Z,78.88
2023-03-16T01:46:23.819Z,79.52
2023-03-16T01:49:06.435Z,79.88
2023-03-16T01:51:43.011Z,79.11
2023-03-16T01:54:20.398Z,79.59
2023-03-16T01:56:57.556Z,79.28
2023-03-16T01:59:31.855Z,79.60
2023-03-16T02:02:01.572Z,79.85
2023-03-16T02:04:53.403Z,79.23
2023-03-16T02:07:27.098Z,79.02
2023-03-16T02:10:01.044Z,78.77
2023-03-16T02:12:31.317Z,78.39
2023-03-16T02:15:02.461Z,78.44
2023-03-16T02:17:33.629Z,78.79
2023-03-16T02:20:26.405Z,77.99
2023-03-16T02:22:56.213Z,78.83
2023-03-16T02:25:36.610Z,77.91
2023-03-16T02:28:16.520Z,77.68
2023-03-16T02:30:49.523Z,77.37
2023-03-16T02:33:19.785Z,76.85
2023-03-16T02:35:48.544Z,76.16
2023-03-16T02:38:17.442Z,76.15
2023-03-16T02:41:01.498Z,75.85
2023-03-16T02:43:36.011Z,75.17
2023-03-16T02:46:14.934Z,75.07
2023-03-16T02:48:49.102Z,73.95
2023-03-16T02:51:17.744Z,72.11
2023-03-16T02:53:47.617Z,71.68
2023-03-16T02:56:16.555Z,72.35
2023-03-16T02:58:45.782Z,70.00
2023-03-16T03:01:20.361Z,67.94
2023-03-16T03:03:49.459Z,70.54
2023-03-16T03:06:18.096Z,68.58
2023-03-16T03:08:47.619Z,68.84
2023-03-16T03:11:16.304Z,69.44
2023-03-16T03:13:45.256Z,69.68
2023-03-16T03:16:21.354Z,68.86
2023-03-16T03:18:53.642Z,69.89
2023-03-16T03:21:24.362Z,69.66
2023-03-16T03:23:53.843Z,70.66
2023-03-16T03:26:22.785Z,71.36
2023-03-16T03:28:52.641Z,70.81
2023-03-16T03:31:23.979Z,71.18
2023-03-16T03:33:54.042Z,72.17
2023-03-16T03:36:24.114Z,71.73
2023-03-16T03:38:54.887Z,72.25
2023-03-16T03:41:24.156Z,70.66
2023-03-16T03:43:55.080Z,71.66
2023-03-16T03:46:25.978Z,71.62
2023-03-16T03:48:54.952Z,71.53
2023-03-16T03:51:24.214Z,71.54
2023-03-16T03:54:04.461Z,71.64
2023-03-16T03:56:42.202Z,71.89
2023-03-16T03:59:15.135Z,70.74
2023-03-16T04:02:03.897Z,71.01
2023-03-16T04:04:46.846Z,71.51
2023-03-16T04:07:16.341Z,70.61
2023-03-16T04:09:46.913Z,70.25
2023-03-16T04:12:33.520Z,71.12
2023-03-16T04:15:03.719Z,70.83
2023-03-16T04:17:39.503Z,71.42
2023-03-16T04:20:14.988Z,70.88
2023-03-16T04:22:47.281Z,71.07
2023-03-16T04:25:18.832Z,70.87
2023-03-16T04:27:48.265Z,70.75
2023-03-16T04:30:19.575Z,70.11
2023-03-16T04:32:54.760Z,69.98
2023-03-16T04:35:24.294Z,69.88
2023-03-16T04:37:56.321Z,69.41
2023-03-16T04:40:34.060Z,69.41
2023-03-16T04:43:11.673Z,69.73
2023-03-16T04:45:41.755Z,69.94
2023-03-16T04:48:12.611Z,69.21
2023-03-16T04:50:41.930Z,69.21
2023-03-16T04:53:10.930Z,69.10
2023-03-16T04:55:39.990Z,69.24
2023-03-16T04:58:08.654Z,69.59
2023-03-16T05:00:40.845Z,69.31
2023-03-16T05:03:25.008Z,68.98
2023-03-16T05:05:54.043Z,69.23
2023-03-16T05:08:23.726Z,69.58
2023-03-16T05:10:58.141Z,69.17
2023-03-16T05:13:28.091Z,69.97
2023-03-16T05:16:00.714Z,68.75
2023-03-16T05:18:35.160Z,68.71
2023-03-16T05:21:04.513Z,68.95
2023-03-16T05:23:44.736Z,69.10
2023-03-16T05:26:14.335Z,69.16
2023-03-16T05:28:43.515Z,69.47
2023-03-16T05:31:15.672Z,69.54
2023-03-16T05:33:51.069Z,69.32
2023-03-16T05:36:22.431Z,68.88
2023-03-16T05:38:54.539Z,68.91
2023-03-16T05:41:49.868Z,69.07
2023-03-16T05:44:38.570Z,69.86
2023-03-16T05:47:30.255Z,69.17
2023-03-16T05:50:01.097Z,70.01
2023-03-16T05:52:37.528Z,69.80
2023-03-16T05:55:15.587Z,70.03
2023-03-16T05:57:45.831Z,70.50
2023-03-16T06:00:16.771Z,69.92
2023-03-16T06:02:53.478Z,69.77
2023-03-16T06:05:25.570Z,69.86
2023-03-16T06:07:54.839Z,70.16
2023-03-16T06:10:26.705Z,69.89
2023-03-16T06:12:56.074Z,70.01
2023-03-16T06:15:26.606Z,68.90
2023-03-16T06:17:58.190Z,68.51
2023-03-16T06:20:28.459Z,69.27
2023-03-16T06:22:58.498Z,68.70
2023-03-16T06:25:28.926Z,68.61
2023-03-16T06:27:58.065Z,69.34
2023-03-16T06:30:28.125Z,68.77
2023-03-16T06:32:57.427Z,68.83
2023-03-16T06:35:28.276Z,67.82
2023-03-16T06:38:09.627Z,68.67
2023-03-16T06:40:53.220Z,66.63
2023-03-16T06:43:24.254Z,65.59
2023-03-16T06:45:54.148Z,66.16
2023-03-16T06:48:24.291Z,65.63
2023-03-16T06:50:55.470Z,64.63
2023-03-16T06:53:28.340Z,64.94
2023-03-16T06:55:58.450Z,65.27
2023-03-16T06:58:29.419Z,65.42
2023-03-16T07:00:58.251Z,66.03
2023-03-16T07:03:27.342Z,64.77
2023-03-16T07:06:03.255Z,65.57
2023-03-16T07:08:34.705Z,64.83
2023-03-16T07:11:04.027Z,63.99
2023-03-16T07:13:32.983Z,63.55
2023-03-16T07:16:01.948Z,62.08
2023-03-16T07:18:32.212Z,60.82
2023-03-16T07:21:03.401Z,58.22
2023-03-16T07:23:33.420Z,60.86
2023-03-16T07:26:08.289Z,58.61
2023-03-16T07:28:41.592Z,57.70
2023-03-16T07:31:10.536Z,57.24
2023-03-16T07:33:43.168Z,57.40
2023-03-16T07:36:17.624Z,57.12
2023-03-16T07:38:53.599Z,54.71
2023-03-16T07:41:22.756Z,55.07
2023-03-16T07:43:52.094Z,56.31
2023-03-16T07:46:25.731Z,56.55
2023-03-16T07:49:04.732Z,56.46
2023-03-16T07:51:37.755Z,58.55
2023-03-16T07:54:07.146Z,57.39
2023-03-16T07:56:48.430Z,55.51
2023-03-16T07:59:29.917Z,56.86
2023-03-16T08:01:58.877Z,55.75
2023-03-16T08:04:29.298Z,57.27
2023-03-16T08:07:02.431Z,56.02
2023-03-16T08:09:46.106Z,55.42
2023-03-16T08:12:19.881Z,56.19
2023-03-16T08:14:49.799Z,56.22
2023-03-16T08:17:23.301Z,56.33
2023-03-16T08:19:53.133Z,55.00
2023-03-16T08:22:25.797Z,55.77
2023-03-16T08:24:56.414Z,55.93
2023-03-16T08:27:29.617Z,56.19
2023-03-16T08:30:05.113Z,56.94
2023-03-16T08:32:35.968Z,55.48
2023-03-16T08:35:06.079Z,56.96
2023-03-16T08:37:37.425Z,55.39
2023-03-16T08:40:10.785Z,54.36
2023-03-16T08:42:41.646Z,50.88
2023-03-16T08:45:14.413Z,54.60
2023-03-16T08:47:46.519Z,54.35
2023-03-16T08:50:19.729Z,50.24
2023-03-16T08:52:50.963Z,52.15
2023-03-16T08:55:28.122Z,53.06
2023-03-16T08:57:56.936Z,52.39
2023-03-16T09:00:26.944Z,50.70
2023-03-16T09:02:56.234Z,51.87
2023-03-16T09:05:26.021Z,52.63
2023-03-16T09:07:56.339Z,52.91
2023-03-16T09:10:27.924Z,52.98
2023-03-16T09:12:56.811Z,52.36
2023-03-16T09:15:27.049Z,50.44
2023-03-16T09:17:57.430Z,50.20
2023-03-16T09:20:30.146Z,51.13
2023-03-16T09:23:00.684Z,50.49
2023-03-16T09:25:30.942Z,51.66
2023-03-16T09:28:01.116Z,51.38
2023-03-16T09:30:30.591Z,49.13
2023-03-16T09:32:59.894Z,48.84
2023-03-16T09:35:30.344Z,48.36
2023-03-16T09:38:07.835Z,48.27
2023-03-16T09:40:39.644Z,46.56
2023-03-16T09:43:22.338Z,45.81
2023-03-16T09:46:00.750Z,44.36
2023-03-16T09:48:33.926Z,45.45
2023-03-16T09:51:07.823Z,46.46
2023-03-16T09:53:40.576Z,45.20
2023-03-16T09:56:14.148Z,46.33
2023-03-16T09:58:43.385Z,45.71
2023-03-16T10:01:23.239Z,44.75
2023-03-16T10:04:03.528Z,44.20
2023-03-16T10:06:45.358Z,44.58
2023-03-16T10:09:28.639Z,44.73
2023-03-16T10:12:07.410Z,44.69
2023-03-16T10:14:46.866Z,39.98
2023-03-16T10:17:20.009Z,43.10
2023-03-16T10:19:54.895Z,44.35
2023-03-16T10:22:26.690Z,42.12
2023-03-16T10:25:12.942Z,41.54
2023-03-16T10:27:47.173Z,42.87
2023-03-16T10:30:25.838Z,42.15
2023-03-16T10:32:56.198Z,43.29
2023-03-16T10:35:36.746Z,42.46
2023-03-16T10:38:09.604Z,41.16
2023-03-16T10:40:41.185Z,41.54
2023-03-16T10:43:15.156Z,42.50
2023-03-16T10:45:46.491Z,44.07
2023-03-16T10:48:19.527Z,43.07
2023-03-16T10:50:53.346Z,41.64
2023-03-16T10:53:26.517Z,41.98
2023-03-16T10:56:02.147Z,42.40
2023-03-16T10:58:33.786Z,42.37
2023-03-16T11:01:03.552Z,40.95
2023-03-16T11:03:41.320Z,39.57
2023-03-16T11:06:22.578Z,36.57
2023-03-16T11:08:53.996Z,39.98
2023-03-16T11:11:29.087Z,38.19
2023-03-16T11:14:01.332Z,38.57
2023-03-16T11:16:38.574Z,37.46
2023-03-16T11:19:19.106Z,37.05
2023-03-16T11:21:55.370Z,38.61
2023-03-16T11:24:31.961Z,41.66
2023-03-16T11:27:08.747Z,39.83
2023-03-16T11:29:51.304Z,40.09
2023-03-16T11:32:25.620Z,39.42
2023-03-16T11:34:54.708Z,39.99
2023-03-16T11:37:36.913Z,37.12
2023-03-16T11:40:19.509Z,36.87
2023-03-16T11:43:02.875Z,34.16
2023-03-16T11:45:40.249Z,36.00
2023-03-16T11:48:30.142Z,35.40
2023-03-16T11:51:06.478Z,34.50
2023-03-16T11:54:09.617Z,35.82
2023-03-16T11:56:44.553Z,36.59
2023-03-16T11:59:48.944Z,35.33
2023-03-16T12:02:46.632Z,36.65
2023-03-16T12:05:34.796Z,36.35
2023-03-16T12:08:19.241Z,35.69
2023-03-16T12:10:54.192Z,34.62
2023-03-16T12:13:37.063Z,35.50
2023-03-16T12:16:16.978Z,35.31
2023-03-16T12:18:50.764Z,35.36
2023-03-16T12:21:26.323Z,35.06
2023-03-16T12:23:59.854Z,34.93
2023-03-16T12:26:32.744Z,36.68
2023-03-16T12:29:15.884Z,36.33
2023-03-16T12:31:55.931Z,33.84
2023-03-16T12:34:31.039Z,35.67
2023-03-16T12:37:23.986Z,34.68
2023-03-16T12:40:10.817Z,34.52
2023-03-16T12:42:51.966Z,34.42
2023-03-16T12:45:32.038Z,34.79
2023-03-16T12:48:14.820Z,33.49
2023-03-16T12:50:51.454Z,34.14
2023-03-16T12:53:39.912Z,34.24
2023-03-16T12:56:11.970Z,35.11
2023-03-16T12:58:45.533Z,33.68
2023-03-16T13:01:17.126Z,34.47
2023-03-16T13:03:52.035Z,33.46
2023-03-16T13:06:24.885Z,33.14
2023-03-16T13:08:59.914Z,33.18
2023-03-16T13:11:29.746Z,33.90
2023-03-16T13:14:11.034Z,33.64
2023-03-16T13:16:41.510Z,33.98
2023-03-16T13:19:38.026Z,32.72
2023-03-16T13:22:27.124Z,31.73
2023-03-16T13:24:59.295Z,31.59
2023-03-16T13:27:31.136Z,32.67
2023-03-16T13:30:03.572Z,32.97
2023-03-16T13:32:36.697Z,32.82
2023-03-16T13:35:15.561Z,33.12
2023-03-16T13:37:46.150Z,31.81
2023-03-16T13:40:21.520Z,33.14
2023-03-16T13:43:00.847Z,35.13
2023-03-16T13:45:34.010Z,34.96
2023-03-16T13:48:03.371Z,35.95
2023-03-16T13:50:36.192Z,33.92
2023-03-16T13:53:14.663Z,34.31
2023-03-16T13:55:47.451Z,34.47
2023-03-16T13:58:23.653Z,34.37
2023-03-16T14:00:58.078Z,34.56
2023-03-16T14:03:33.968Z,35.65
2023-03-16T14:06:04.741Z,34.26
2023-03-16T14:08:35.081Z,34.66
2023-03-16T14:11:04.264Z,35.03
2023-03-16T14:13:38.463Z,33.57
2023-03-16T14:16:14.400Z,33.37
2023-03-16T14:18:46.193Z,32.98
2023-03-16T14:21:18.835Z,33.54
2023-03-16T14:23:53.001Z,34.01
2023-03-16T14:26:22.154Z,34.75
2023-03-16T14:29:04.292Z,32.37
2023-03-16T14:31:35.745Z,32.42
2023-03-16T14:34:08.809Z,32.55
2023-03-16T14:36:40.331Z,32.71
2023-03-16T14:39:14.598Z,33.25
2023-03-16T14:41:43.914Z,33.72
2023-03-16T14:44:22.944Z,33.09
2023-03-16T14:46:54.367Z,33.67
2023-03-16T14:49:28.015Z,33.02
2023-03-16T14:52:02.461Z,32.94
2023-03-16T14:54:32.421Z,33.55
2023-03-16T14:57:03.036Z,34.84
2023-03-16T14:59:32.205Z,34.69
2023-03-16T15:02:03.172Z,33.66
2023-03-16T15:04:35.232Z,32.69
2023-03-16T15:07:21.847Z,32.72
2023-03-16T15:09:52.029Z,33.40
2023-03-16T15:12:24.725Z,33.82
2023-03-16T15:15:23.188Z,34.15
2023-03-16T15:17:55.113Z,34.17
2023-03-16T15:20:30.407Z,33.77
2023-03-16T15:23:01.848Z,33.49
2023-03-16T15:25:37.061Z,33.59
2023-03-16T15:28:13.683Z,34.02
2023-03-16T15:30:43.377Z,33.70
2023-03-16T15:33:12.753Z,34.80
2023-03-16T15:35:42.923Z,33.33
2023-03-16T15:38:17.932Z,33.96
2023-03-16T15:40:48.305Z,34.31
2023-03-16T15:43:19.422Z,34.58
2023-03-16T15:45:48.771Z,33.60
2023-03-16T15:48:17.562Z,34.50
2023-03-16T15:50:53.676Z,33.56
2023-03-16T15:53:30.633Z,34.05
2023-03-16T15:56:03.196Z,33.75
2023-03-16T15:58:35.457Z,32.79
2023-03-16T16:01:06.867Z,32.72
2023-03-16T16:03:36.015Z,33.38
2023-03-16T16:06:05.492Z,34.54
2023-03-16T16:08:35.261Z,33.28
2023-03-16T16:11:09.256Z,34.01
2023-03-16T16:13:44.834Z,33.84
2023-03-16T16:16:16.934Z,33.24
2023-03-16T16:18:46.691Z,33.18
2023-03-16T16:21:18.309Z,33.54
2023-03-16T16:23:48.909Z,33.23
2023-03-16T16:26:46.934Z,33.45
2023-03-16T16:29:19.173Z,32.82
2023-03-16T16:31:48.260Z,33.01
2023-03-16T16:34:21.207Z,32.95
2023-03-16T16:36:50.827Z,34.04
2023-03-16T16:39:22.017Z,32.54
2023-03-16T16:41:54.907Z,33.42
2023-03-16T16:44:25.665Z,33.88
2023-03-16T16:46:55.872Z,34.00
2023-03-16T16:49:26.462Z,33.51
2023-03-16T16:51:56.244Z,33.93
2023-03-16T16:54:29.476Z,33.74
2023-03-16T16:57:01.232Z,34.55
2023-03-16T16:59:33.131Z,33.89
2023-03-16T17:02:04.502Z,34.24
2023-03-16T17:04:33.314Z,34.40
2023-03-16T17:07:02.768Z,34.41
2023-03-16T17:09:32.804Z,34.67
2023-03-16T17:12:03.116Z,34.18
2023-03-16T17:14:32.290Z,34.92
2023-03-16T17:17:03.774Z,35.00
2023-03-16T17:19:32.915Z,35.11
2023-03-16T17:22:02.390Z,36.20
2023-03-16T17:24:32.414Z,35.83
2023-03-16T17:27:02.918Z,34.54
2023-03-16T17:29:33.113Z,35.84
2023-03-16T17:32:04.073Z,35.10
2023-03-16T17:34:35.372Z,35.29
2023-03-16T17:37:05.274Z,35.19
2023-03-16T17:39:35.409Z,35.65
2023-03-16T17:42:07.770Z,35.62
2023-03-16T17:44:41.613Z,35.30
2023-03-16T17:47:16.227Z,35.58
2023-03-16T17:49:48.545Z,35.36
2023-03-16T17:52:19.648Z,35.93
2023-03-16T17:54:52.068Z,36.29
2023-03-16T17:57:27.443Z,36.18
2023-03-16T17:59:56.470Z,35.96
2023-03-16T18:02:38.559Z,35.39
2023-03-16T18:05:10.392Z,35.85
2023-03-16T18:07:39.816Z,36.22
2023-03-16T18:10:15.095Z,36.14
2023-03-16T18:12:44.739Z,35.90
2023-03-16T18:15:18.332Z,36.30
2023-03-16T18:17:47.377Z,37.18
2023-03-16T18:20:23.484Z,36.83
2023-03-16T18:22:52.538Z,36.26
2023-03-16T18:25:31.643Z,36.19
2023-03-16T18:28:02.901Z,36.62
2023-03-16T18:30:32.879Z,36.92
2023-03-16T18:33:04.220Z,37.50
2023-03-16T18:35:33.095Z,37.24
2023-03-16T18:38:02.483Z,38.07
2023-03-16T18:40:33.228Z,37.54
2023-03-16T18:43:02.372Z,37.65
2023-03-16T18:45:31.825Z,38.02
2023-03-16T18:48:01.066Z,37.68
2023-03-16T18:50:30.988Z,37.88
2023-03-16T18:53:00.133Z,38.12
2023-03-16T18:55:29.636Z,37.85
2023-03-16T18:58:00.415Z,37.90
2023-03-16T19:00:29.921Z,37.85
2023-03-16T19:03:03.348Z,38.28
2023-03-16T19:05:35.989Z,38.44
2023-03-16T19:08:06.384Z,38.33
2023-03-16T19:10:42.017Z,38.79
2023-03-16T19:13:17.207Z,38.59
2023-03-16T19:15:46.907Z,38.88
2023-03-16T19:18:16.484Z,39.29
2023-03-16T19:20:50.218Z,38.58
2023-03-16T19:23:24.339Z,39.49
2023-03-16T19:25:54.573Z,39.48
2023-03-16T19:28:29.274Z,39.39
2023-03-16T19:30:58.302Z,39.37
2023-03-16T19:33:29.150Z,39.87
2023-03-16T19:35:58.599Z,40.63
2023-03-16T19:38:27.935Z,39.52
2023-03-16T19:40:59.201Z,39.97
2023-03-16T19:43:29.755Z,39.59
2023-03-16T19:45:58.548Z,39.32
2023-03-16T19:48:32.887Z,39.29
2023-03-16T19:51:02.149Z,38.69
2023-03-16T19:53:31.293Z,39.25
2023-03-16T19:56:00.646Z,39.23
2023-03-16T19:58:36.001Z,38.58
2023-03-16T20:01:06.580Z,38.87
2023-03-16T20:03:38.701Z,38.97
2023-03-16T20:06:08.707Z,38.63
2023-03-16T20:08:37.686Z,39.11
2023-03-16T20:11:08.778Z,38.83
2023-03-16T20:13:39.123Z,39.52
2023-03-16T20:16:08.893Z,39.11
2023-03-16T20:18:38.006Z,40.23
2023-03-16T20:21:07.373Z,39.90
2023-03-16T20:23:36.453Z,39.29
2023-03-16T20:26:05.305Z,38.72
2023-03-16T20:28:37.178Z,39.05
2023-03-16T20:31:15.328Z,39.34
2023-03-16T20:33:44.851Z,39.41
2023-03-16T20:36:13.714Z,39.08
2023-03-16T20:38:43.635Z,38.96
2023-03-16T20:41:19.815Z,38.82
2023-03-16T20:43:48.921Z,38.92
2023-03-16T20:46:23.824Z,38.33
2023-03-16T20:48:53.504Z,39.00
2023-03-16T20:51:22.155Z,38.49
2023-03-16T20:53:51.420Z,38.21
2023-03-16T20:56:22.109Z,38.57
2023-03-16T20:58:55.732Z,38.49
2023-03-16T21:01:26.410Z,38.63
2023-03-16T21:03:56.901Z,38.88
2023-03-16T21:06:28.596Z,38.61
2023-03-16T21:08:59.452Z,38.38
2023-03-16T21:11:33.259Z,38.68
2023-03-16T21:14:02.799Z,38.90
2023-03-16T21:16:33.293Z,38.38
2023-03-16T21:19:02.326Z,38.68
2023-03-16T21:21:31.039Z,38.83
2023-03-16T21:24:02.304Z,38.96
2023-03-16T21:26:34.173Z,38.70
2023-03-16T21:29:08.359Z,38.90
2023-03-16T21:31:38.511Z,38.86
2023-03-16T21:34:19.136Z,38.63
2023-03-16T21:36:47.924Z,38.60
2023-03-16T21:39:19.924Z,39.10
2023-03-16T21:41:50.866Z,38.93
2023-03-16T21:44:19.872Z,38.95
2023-03-16T21:46:51.479Z,39.85
2023-03-16T21:49:22.200Z,39.98
2023-03-16T21:51:51.978Z,39.80
2023-03-16T21:54:21.179Z,39.83
2023-03-16T21:56:50.434Z,39.64
2023-03-16T21:59:19.328Z,39.36
2023-03-16T22:02:01.062Z,39.38
2023-03-16T22:04:31.347Z,39.30
2023-03-16T22:07:00.007Z,39.58
2023-03-16T22:09:30.374Z,38.89
2023-03-16T22:11:59.263Z,39.27
2023-03-16T22:14:28.337Z,39.73
2023-03-16T22:16:58.459Z,39.97
2023-03-16T22:19:28.381Z,39.10
2023-03-16T22:21:57.799Z,39.70
2023-03-16T22:24:28.998Z,39.57
2023-03-16T22:26:58.242Z,39.86
2023-03-16T22:29:29.068Z,39.91
2023-03-16T22:32:01.276Z,39.10
2023-03-16T22:34:33.993Z,39.02
2023-03-16T22:37:03.315Z,39.82
2023-03-16T22:39:37.736Z,39.34
2023-03-16T22:42:25.053Z,39.53
2023-03-16T22:44:54.343Z,39.54
2023-03-16T22:47:27.325Z,39.96
2023-03-16T22:49:56.608Z,40.65
2023-03-16T22:52:30.937Z,39.55
2023-03-16T22:55:02.283Z,40.00
2023-03-16T22:57:31.825Z,39.98
2023-03-16T23:00:07.341Z,40.03
2023-03-16T23:02:37.518Z,40.01
2023-03-16T23:05:20.756Z,39.63
2023-03-16T23:07:49.958Z,39.80
2023-03-16T23:10:20.087Z,39.45
2023-03-16T23:12:49.650Z,40.27
2023-03-16T23:15:21.631Z,40.13
2023-03-16T23:17:52.235Z,39.86
2023-03-16T23:20:23.664Z,40.19
2023-03-16T23:22:53.171Z,40.65
2023-03-16T23:25:22.696Z,39.71
2023-03-16T23:27:53.477Z,39.62
2023-03-16T23:30:25.754Z,39.94
2023-03-16T23:32:56.788Z,40.10
2023-03-16T23:35:27.693Z,40.03
2023-03-16T23:37:57.174Z,39.81
2023-03-16T23:40:29.329Z,39.93
2023-03-16T23:43:02.167Z,40.51
2023-03-16T23:45:35.477Z,40.98
2023-03-16T23:48:08.427Z,40.51
2023-03-16T23:50:38.613Z,40.32
2023-03-16T23:53:12.350Z,40.04
2023-03-16T23:55:42.445Z,40.54
2023-03-16T23:58:11.754Z,40.26
